Terminal Aerodrome Forecast
Issued by NWS Cleveland, OH

Home | Current Version | Previous Version | Graphics & Text | Print | Product List | Glossary On
Versions: 1 2 3 4 5 6 7 8 9 10 11 12 13 14 15 16 17 18 19 20 21
000
FTUS41 KCLE 190000 AAA
TAFCAK
TAF AMD
KCAK 190029Z 1900/1924 31010KT P6SM VCSH SCT009 OVC025
      TEMPO 1900/1903 5SM -SHRA BKN009
     FM190500 32006KT P6SM OVC030
     FM191600 31006KT P6SM BKN035=

USA.gov is the U.S. government's official web portal to all federal, state and local government web resources and services.